Pagina principale
Immagini satellite Previsioni 10 giorniClimaMeteomar Cicloni Fulmine AeroportiFAQ Bollettino Informazioni
Tempo : Europa Africa America settentrionale America meridionale Asia Australia-Oceania Altri
Lingue Contatto

Genova, Italia

Sestri

latitudine: 44-25N, longitudine: 008-51E, altezza: 2 m


METAR: LIMJ 290550Z 11010KT 080V160 9999 FEW028 BKN035 10/05 Q1003
TAF: LIMJ 290500Z 2906/3006 19008KT 9999 BKN030 SCT050 TEMPO 2922/3006 RA

Ora: 07:14 (06:14 UTC)

Osservazione

Il bollettino è stato emesso 24 minuti fa, alle 05:50 UTC
Vento 10 kt da est/sud-est, variando fra est e sud/sud-est
Temperature 10°C
Umidità 71%
Pressione 1003 hPa
Visibilità 10 km o più
Poco nuvoloso ad un'altezza di 2800 ft
Nuvoloso ad un'altezza di 3500 ft

Cambiare le unità

Previsione

Il bollettino è stato emesso 1 ora e 14 minuti fa, alle 05:00 UTC
Previsione valida dal 29 alle 06 UTC al 30 alle 06 UTC
Vento 8 kt da sud
Visibilità 10 km o più
Nuvoloso ad un'altezza di 3000 ft
Nubi sparse ad un'altezza di 5000 ft
Temporaneamente
dal 29 alle 22 UTC al 30 alle 06 UTC
pioggia
Le informazioni contenute in questo sito formano oggetto di una clausola di esclusione di responsabilità
Tempo : Europa Africa America settentrionale America meridionale Asia Australia-Oceania Altri
Immagini satellite Previsioni 10 giorniClimaMeteomar Cicloni Fulmine AeroportiFAQ Lingue Contatto Bollettino Informazioni